sensor_id;sensor_type;location;lat;lon;timestamp;P1;durP1;ratioP1;P2;durP2;ratioP2
73678;SDS011;61978;52.742;16.962;2023-06-24T00:02:13;5.90;;;5.10;;
73678;SDS011;61978;52.742;16.962;2023-06-24T00:04:38;7.00;;;5.10;;
73678;SDS011;61978;52.742;16.962;2023-06-24T00:07:04;7.80;;;5.50;;
73678;SDS011;61978;52.742;16.962;2023-06-24T00:09:30;9.60;;;5.80;;
73678;SDS011;61978;52.742;16.962;2023-06-24T00:11:59;7.50;;;5.80;;
73678;SDS011;61978;52.742;16.962;2023-06-24T00:14:26;7.20;;;5.50;;
73678;SDS011;61978;52.742;16.962;2023-06-24T00:16:52;10.50;;;5.00;;
73678;SDS011;61978;52.742;16.962;2023-06-24T00:19:18;7.70;;;5.00;;
73678;SDS011;61978;52.742;16.962;2023-06-24T00:21:44;8.20;;;5.00;;
73678;SDS011;61978;52.742;16.962;2023-06-24T00:24:10;10.10;;;5.60;;
73678;SDS011;61978;52.742;16.962;2023-06-24T00:26:35;10.80;;;5.70;;
73678;SDS011;61978;52.742;16.962;2023-06-24T00:29:01;6.70;;;4.70;;
73678;SDS011;61978;52.742;16.962;2023-06-24T00:31:28;10.40;;;5.10;;
73678;SDS011;61978;52.742;16.962;2023-06-24T00:33:54;9.00;;;5.40;;
73678;SDS011;61978;52.742;16.962;2023-06-24T00:36:20;9.40;;;4.70;;
73678;SDS011;61978;52.742;16.962;2023-06-24T00:38:46;5.70;;;4.30;;
73678;SDS011;61978;52.742;16.962;2023-06-24T00:41:13;6.80;;;5.30;;
73678;SDS011;61978;52.742;16.962;2023-06-24T00:43:41;8.10;;;5.70;;
73678;SDS011;61978;52.742;16.962;2023-06-24T00:46:07;7.00;;;5.50;;
73678;SDS011;61978;52.742;16.962;2023-06-24T00:48:33;10.00;;;6.20;;
73678;SDS011;61978;52.742;16.962;2023-06-24T00:50:59;9.60;;;5.60;;
73678;SDS011;61978;52.742;16.962;2023-06-24T00:53:26;9.90;;;5.80;;
73678;SDS011;61978;52.742;16.962;2023-06-24T00:55:52;7.70;;;6.10;;
73678;SDS011;61978;52.742;16.962;2023-06-24T00:58:20;8.20;;;4.70;;
73678;SDS011;61978;52.742;16.962;2023-06-24T01:00:46;7.90;;;5.60;;
73678;SDS011;61978;52.742;16.962;2023-06-24T01:03:13;11.60;;;6.50;;
73678;SDS011;61978;52.742;16.962;2023-06-24T01:05:40;8.70;;;5.80;;
73678;SDS011;61978;52.742;16.962;2023-06-24T01:08:06;6.80;;;5.20;;
73678;SDS011;61978;52.742;16.962;2023-06-24T01:10:32;9.70;;;5.10;;
73678;SDS011;61978;52.742;16.962;2023-06-24T01:12:58;10.00;;;5.90;;
73678;SDS011;61978;52.742;16.962;2023-06-24T01:15:25;6.70;;;5.50;;
73678;SDS011;61978;52.742;16.962;2023-06-24T01:20:48;8.70;;;6.60;;
73678;SDS011;61978;52.742;16.962;2023-06-24T01:26:11;9.20;;;6.30;;
73678;SDS011;61978;52.742;16.962;2023-06-24T01:29:01;9.80;;;6.30;;
73678;SDS011;61978;52.742;16.962;2023-06-24T01:34:08;12.00;;;6.80;;
73678;SDS011;61978;52.742;16.962;2023-06-24T01:36:38;11.10;;;6.70;;
73678;SDS011;61978;52.742;16.962;2023-06-24T01:39:04;9.40;;;5.90;;
73678;SDS011;61978;52.742;16.962;2023-06-24T01:41:32;9.60;;;6.00;;
73678;SDS011;61978;52.742;16.962;2023-06-24T01:44:00;8.80;;;5.90;;
73678;SDS011;61978;52.742;16.962;2023-06-24T01:46:26;9.40;;;6.50;;
73678;SDS011;61978;52.742;16.962;2023-06-24T01:48:54;12.50;;;6.90;;
73678;SDS011;61978;52.742;16.962;2023-06-24T01:51:21;9.70;;;6.20;;
73678;SDS011;61978;52.742;16.962;2023-06-24T01:53:49;8.50;;;6.70;;
73678;SDS011;61978;52.742;16.962;2023-06-24T01:56:15;6.90;;;6.20;;
73678;SDS011;61978;52.742;16.962;2023-06-24T01:58:43;8.70;;;6.40;;
73678;SDS011;61978;52.742;16.962;2023-06-24T02:01:10;9.40;;;6.60;;
73678;SDS011;61978;52.742;16.962;2023-06-24T02:03:37;8.70;;;6.20;;
73678;SDS011;61978;52.742;16.962;2023-06-24T02:06:04;8.30;;;6.70;;
73678;SDS011;61978;52.742;16.962;2023-06-24T02:08:33;9.30;;;6.30;;
73678;SDS011;61978;52.742;16.962;2023-06-24T02:10:59;7.60;;;6.40;;
73678;SDS011;61978;52.742;16.962;2023-06-24T02:13:26;10.00;;;7.40;;
73678;SDS011;61978;52.742;16.962;2023-06-24T02:15:52;10.60;;;6.90;;
73678;SDS011;61978;52.742;16.962;2023-06-24T02:18:18;10.80;;;6.90;;
73678;SDS011;61978;52.742;16.962;2023-06-24T02:20:46;12.20;;;7.00;;
73678;SDS011;61978;52.742;16.962;2023-06-24T02:23:12;11.80;;;7.20;;
73678;SDS011;61978;52.742;16.962;2023-06-24T02:25:38;8.60;;;7.20;;
73678;SDS011;61978;52.742;16.962;2023-06-24T02:28:05;10.20;;;7.40;;
73678;SDS011;61978;52.742;16.962;2023-06-24T02:30:37;8.00;;;7.00;;
73678;SDS011;61978;52.742;16.962;2023-06-24T02:33:04;13.00;;;6.90;;
73678;SDS011;61978;52.742;16.962;2023-06-24T02:35:29;13.00;;;6.90;;
73678;SDS011;61978;52.742;16.962;2023-06-24T02:37:56;8.40;;;6.80;;
73678;SDS011;61978;52.742;16.962;2023-06-24T02:40:21;8.30;;;6.60;;
73678;SDS011;61978;52.742;16.962;2023-06-24T02:42:47;8.50;;;6.20;;
73678;SDS011;61978;52.742;16.962;2023-06-24T02:45:13;8.60;;;7.10;;
73678;SDS011;61978;52.742;16.962;2023-06-24T02:47:41;12.70;;;8.10;;
73678;SDS011;61978;52.742;16.962;2023-06-24T02:50:09;7.20;;;6.50;;
73678;SDS011;61978;52.742;16.962;2023-06-24T02:52:36;9.00;;;5.80;;
73678;SDS011;61978;52.742;16.962;2023-06-24T02:55:03;9.90;;;5.80;;
73678;SDS011;61978;52.742;16.962;2023-06-24T02:57:44;7.90;;;6.20;;
73678;SDS011;61978;52.742;16.962;2023-06-24T03:00:36;11.50;;;6.30;;
73678;SDS011;61978;52.742;16.962;2023-06-24T03:03:22;8.30;;;5.90;;
73678;SDS011;61978;52.742;16.962;2023-06-24T03:05:52;7.50;;;6.00;;
73678;SDS011;61978;52.742;16.962;2023-06-24T03:08:19;8.50;;;6.70;;
73678;SDS011;61978;52.742;16.962;2023-06-24T03:10:46;11.50;;;6.20;;
73678;SDS011;61978;52.742;16.962;2023-06-24T03:13:16;9.60;;;6.40;;
73678;SDS011;61978;52.742;16.962;2023-06-24T03:15:45;10.70;;;7.40;;
73678;SDS011;61978;52.742;16.962;2023-06-24T03:18:11;12.20;;;5.80;;
73678;SDS011;61978;52.742;16.962;2023-06-24T03:20:37;12.60;;;6.50;;
73678;SDS011;61978;52.742;16.962;2023-06-24T03:23:09;9.20;;;5.40;;
73678;SDS011;61978;52.742;16.962;2023-06-24T03:25:35;10.50;;;6.20;;
73678;SDS011;61978;52.742;16.962;2023-06-24T03:28:01;10.30;;;6.10;;
73678;SDS011;61978;52.742;16.962;2023-06-24T03:30:30;8.30;;;6.60;;
73678;SDS011;61978;52.742;16.962;2023-06-24T03:32:57;9.50;;;6.60;;
73678;SDS011;61978;52.742;16.962;2023-06-24T03:35:23;11.00;;;6.00;;
73678;SDS011;61978;52.742;16.962;2023-06-24T03:37:49;10.50;;;5.90;;
73678;SDS011;61978;52.742;16.962;2023-06-24T03:40:14;8.70;;;7.20;;
73678;SDS011;61978;52.742;16.962;2023-06-24T03:42:40;10.00;;;6.70;;
73678;SDS011;61978;52.742;16.962;2023-06-24T03:45:06;8.70;;;6.20;;
73678;SDS011;61978;52.742;16.962;2023-06-24T03:47:31;12.20;;;5.40;;
73678;SDS011;61978;52.742;16.962;2023-06-24T03:49:58;12.70;;;6.00;;
73678;SDS011;61978;52.742;16.962;2023-06-24T03:52:24;7.30;;;5.20;;
73678;SDS011;61978;52.742;16.962;2023-06-24T03:54:50;9.60;;;6.80;;
73678;SDS011;61978;52.742;16.962;2023-06-24T03:57:16;11.20;;;7.10;;
73678;SDS011;61978;52.742;16.962;2023-06-24T03:59:42;8.20;;;7.30;;
73678;SDS011;61978;52.742;16.962;2023-06-24T04:02:08;10.40;;;7.00;;
73678;SDS011;61978;52.742;16.962;2023-06-24T04:04:35;12.90;;;7.40;;
73678;SDS011;61978;52.742;16.962;2023-06-24T04:07:02;11.20;;;7.70;;
73678;SDS011;61978;52.742;16.962;2023-06-24T04:09:29;13.50;;;6.90;;
73678;SDS011;61978;52.742;16.962;2023-06-24T04:11:54;10.50;;;6.90;;
73678;SDS011;61978;52.742;16.962;2023-06-24T04:14:20;8.70;;;6.30;;
73678;SDS011;61978;52.742;16.962;2023-06-24T04:16:46;12.00;;;6.80;;
73678;SDS011;61978;52.742;16.962;2023-06-24T04:19:12;9.20;;;7.70;;
73678;SDS011;61978;52.742;16.962;2023-06-24T04:21:38;14.40;;;6.80;;
73678;SDS011;61978;52.742;16.962;2023-06-24T04:24:04;7.60;;;6.70;;
73678;SDS011;61978;52.742;16.962;2023-06-24T04:26:30;14.00;;;6.80;;
73678;SDS011;61978;52.742;16.962;2023-06-24T04:28:56;11.30;;;7.30;;
73678;SDS011;61978;52.742;16.962;2023-06-24T04:31:21;12.40;;;6.70;;
73678;SDS011;61978;52.742;16.962;2023-06-24T04:33:47;9.30;;;7.50;;
73678;SDS011;61978;52.742;16.962;2023-06-24T04:36:13;8.70;;;7.40;;
73678;SDS011;61978;52.742;16.962;2023-06-24T04:38:38;15.70;;;7.10;;
73678;SDS011;61978;52.742;16.962;2023-06-24T04:41:04;11.70;;;7.20;;
73678;SDS011;61978;52.742;16.962;2023-06-24T04:43:30;11.00;;;6.70;;
73678;SDS011;61978;52.742;16.962;2023-06-24T04:45:55;10.70;;;7.30;;
73678;SDS011;61978;52.742;16.962;2023-06-24T04:48:23;13.80;;;7.80;;
73678;SDS011;61978;52.742;16.962;2023-06-24T04:50:48;9.50;;;7.60;;
73678;SDS011;61978;52.742;16.962;2023-06-24T04:53:14;8.90;;;6.80;;
73678;SDS011;61978;52.742;16.962;2023-06-24T04:55:40;10.90;;;7.00;;
73678;SDS011;61978;52.742;16.962;2023-06-24T04:58:06;8.90;;;6.20;;
73678;SDS011;61978;52.742;16.962;2023-06-24T05:00:32;10.20;;;6.60;;
73678;SDS011;61978;52.742;16.962;2023-06-24T05:02:57;6.90;;;6.20;;
73678;SDS011;61978;52.742;16.962;2023-06-24T05:05:23;12.70;;;7.60;;
73678;SDS011;61978;52.742;16.962;2023-06-24T05:07:49;7.70;;;6.90;;
73678;SDS011;61978;52.742;16.962;2023-06-24T05:10:15;13.80;;;7.10;;
73678;SDS011;61978;52.742;16.962;2023-06-24T05:12:41;12.10;;;9.30;;
73678;SDS011;61978;52.742;16.962;2023-06-24T05:15:06;10.10;;;8.30;;
73678;SDS011;61978;52.742;16.962;2023-06-24T05:17:32;21.10;;;9.10;;
73678;SDS011;61978;52.742;16.962;2023-06-24T05:19:58;18.30;;;8.70;;
73678;SDS011;61978;52.742;16.962;2023-06-24T05:22:24;11.80;;;8.30;;
73678;SDS011;61978;52.742;16.962;2023-06-24T05:24:49;9.80;;;7.10;;
73678;SDS011;61978;52.742;16.962;2023-06-24T05:27:15;13.50;;;8.00;;
73678;SDS011;61978;52.742;16.962;2023-06-24T05:29:41;12.00;;;7.80;;
73678;SDS011;61978;52.742;16.962;2023-06-24T05:32:06;14.30;;;8.30;;
73678;SDS011;61978;52.742;16.962;2023-06-24T05:34:32;10.90;;;7.80;;
73678;SDS011;61978;52.742;16.962;2023-06-24T05:36:59;11.00;;;7.50;;
73678;SDS011;61978;52.742;16.962;2023-06-24T05:39:24;11.50;;;8.50;;
73678;SDS011;61978;52.742;16.962;2023-06-24T05:41:50;9.80;;;8.30;;
73678;SDS011;61978;52.742;16.962;2023-06-24T05:44:16;9.90;;;7.60;;
73678;SDS011;61978;52.742;16.962;2023-06-24T05:46:46;10.60;;;6.70;;
73678;SDS011;61978;52.742;16.962;2023-06-24T05:49:12;9.80;;;7.80;;
73678;SDS011;61978;52.742;16.962;2023-06-24T05:51:38;11.80;;;7.40;;
73678;SDS011;61978;52.742;16.962;2023-06-24T05:54:04;11.00;;;7.00;;
73678;SDS011;61978;52.742;16.962;2023-06-24T05:56:30;10.00;;;6.90;;
73678;SDS011;61978;52.742;16.962;2023-06-24T05:58:56;10.00;;;6.70;;
73678;SDS011;61978;52.742;16.962;2023-06-24T06:01:22;9.30;;;6.70;;
73678;SDS011;61978;52.742;16.962;2023-06-24T06:03:50;11.70;;;6.80;;
73678;SDS011;61978;52.742;16.962;2023-06-24T06:06:16;7.90;;;7.00;;
73678;SDS011;61978;52.742;16.962;2023-06-24T06:08:42;10.40;;;7.50;;
73678;SDS011;61978;52.742;16.962;2023-06-24T06:11:10;10.80;;;7.10;;
73678;SDS011;61978;52.742;16.962;2023-06-24T06:13:36;12.50;;;7.40;;
73678;SDS011;61978;52.742;16.962;2023-06-24T06:16:02;11.40;;;7.70;;
73678;SDS011;61978;52.742;16.962;2023-06-24T06:18:28;8.60;;;6.80;;
73678;SDS011;61978;52.742;16.962;2023-06-24T06:20:53;9.60;;;6.20;;
73678;SDS011;61978;52.742;16.962;2023-06-24T06:23:19;10.30;;;6.80;;
73678;SDS011;61978;52.742;16.962;2023-06-24T06:25:45;9.40;;;6.40;;
73678;SDS011;61978;52.742;16.962;2023-06-24T06:28:11;6.60;;;5.90;;
73678;SDS011;61978;52.742;16.962;2023-06-24T06:30:40;11.10;;;7.00;;
73678;SDS011;61978;52.742;16.962;2023-06-24T06:33:05;7.40;;;5.30;;
73678;SDS011;61978;52.742;16.962;2023-06-24T06:35:31;9.10;;;5.80;;
73678;SDS011;61978;52.742;16.962;2023-06-24T06:37:57;8.60;;;4.30;;
73678;SDS011;61978;52.742;16.962;2023-06-24T06:40:23;5.70;;;3.50;;
73678;SDS011;61978;52.742;16.962;2023-06-24T06:42:48;5.70;;;4.30;;
73678;SDS011;61978;52.742;16.962;2023-06-24T06:45:14;9.20;;;4.20;;
73678;SDS011;61978;52.742;16.962;2023-06-24T06:47:40;10.20;;;4.40;;
73678;SDS011;61978;52.742;16.962;2023-06-24T06:50:06;7.20;;;4.30;;
73678;SDS011;61978;52.742;16.962;2023-06-24T06:52:33;7.80;;;4.60;;
73678;SDS011;61978;52.742;16.962;2023-06-24T06:54:59;21.30;;;5.10;;
73678;SDS011;61978;52.742;16.962;2023-06-24T06:57:25;8.50;;;4.60;;
73678;SDS011;61978;52.742;16.962;2023-06-24T06:59:51;7.70;;;5.40;;
73678;SDS011;61978;52.742;16.962;2023-06-24T07:02:17;5.50;;;3.20;;
73678;SDS011;61978;52.742;16.962;2023-06-24T07:04:43;11.30;;;5.90;;
73678;SDS011;61978;52.742;16.962;2023-06-24T07:07:08;7.10;;;4.50;;
73678;SDS011;61978;52.742;16.962;2023-06-24T07:09:34;6.40;;;4.50;;
73678;SDS011;61978;52.742;16.962;2023-06-24T07:12:01;10.00;;;5.00;;
73678;SDS011;61978;52.742;16.962;2023-06-24T07:14:26;5.70;;;4.20;;
73678;SDS011;61978;52.742;16.962;2023-06-24T07:16:52;5.50;;;4.40;;
73678;SDS011;61978;52.742;16.962;2023-06-24T07:19:18;5.40;;;4.00;;
73678;SDS011;61978;52.742;16.962;2023-06-24T07:21:43;7.40;;;5.00;;
73678;SDS011;61978;52.742;16.962;2023-06-24T07:24:09;7.60;;;4.90;;
73678;SDS011;61978;52.742;16.962;2023-06-24T07:26:35;7.40;;;5.10;;
73678;SDS011;61978;52.742;16.962;2023-06-24T07:29:01;7.90;;;5.40;;
73678;SDS011;61978;52.742;16.962;2023-06-24T07:31:26;8.40;;;5.70;;
73678;SDS011;61978;52.742;16.962;2023-06-24T07:33:52;9.30;;;6.50;;
73678;SDS011;61978;52.742;16.962;2023-06-24T07:36:18;9.40;;;6.30;;
73678;SDS011;61978;52.742;16.962;2023-06-24T07:38:44;9.10;;;5.70;;
73678;SDS011;61978;52.742;16.962;2023-06-24T07:41:10;7.90;;;6.00;;
73678;SDS011;61978;52.742;16.962;2023-06-24T07:43:36;7.50;;;4.90;;
73678;SDS011;61978;52.742;16.962;2023-06-24T07:46:01;8.20;;;5.00;;
73678;SDS011;61978;52.742;16.962;2023-06-24T07:48:30;7.00;;;5.20;;
73678;SDS011;61978;52.742;16.962;2023-06-24T07:50:57;6.70;;;5.00;;
73678;SDS011;61978;52.742;16.962;2023-06-24T07:53:23;10.90;;;5.70;;
73678;SDS011;61978;52.742;16.962;2023-06-24T07:55:49;10.00;;;5.70;;
73678;SDS011;61978;52.742;16.962;2023-06-24T07:58:15;8.60;;;4.90;;
73678;SDS011;61978;52.742;16.962;2023-06-24T08:00:40;8.10;;;3.60;;
73678;SDS011;61978;52.742;16.962;2023-06-24T08:03:06;5.50;;;3.10;;
73678;SDS011;61978;52.742;16.962;2023-06-24T08:05:32;6.50;;;3.50;;
73678;SDS011;61978;52.742;16.962;2023-06-24T08:07:58;7.70;;;4.80;;
73678;SDS011;61978;52.742;16.962;2023-06-24T08:10:24;7.20;;;3.50;;
73678;SDS011;61978;52.742;16.962;2023-06-24T08:12:50;16.90;;;4.90;;
73678;SDS011;61978;52.742;16.962;2023-06-24T08:15:15;4.90;;;2.70;;
73678;SDS011;61978;52.742;16.962;2023-06-24T08:17:41;3.50;;;3.20;;
73678;SDS011;61978;52.742;16.962;2023-06-24T08:20:07;7.00;;;3.70;;
73678;SDS011;61978;52.742;16.962;2023-06-24T08:22:33;4.50;;;3.40;;
73678;SDS011;61978;52.742;16.962;2023-06-24T08:24:59;8.30;;;2.60;;
73678;SDS011;61978;52.742;16.962;2023-06-24T08:27:24;4.80;;;2.90;;
73678;SDS011;61978;52.742;16.962;2023-06-24T08:29:50;6.50;;;3.00;;
73678;SDS011;61978;52.742;16.962;2023-06-24T08:32:16;7.30;;;3.00;;
73678;SDS011;61978;52.742;16.962;2023-06-24T08:34:41;3.30;;;2.80;;
73678;SDS011;61978;52.742;16.962;2023-06-24T08:37:08;4.10;;;3.10;;
73678;SDS011;61978;52.742;16.962;2023-06-24T08:39:33;5.50;;;3.00;;
73678;SDS011;61978;52.742;16.962;2023-06-24T08:41:59;3.50;;;2.70;;
73678;SDS011;61978;52.742;16.962;2023-06-24T08:44:25;3.70;;;3.40;;
73678;SDS011;61978;52.742;16.962;2023-06-24T08:46:50;5.90;;;3.40;;
73678;SDS011;61978;52.742;16.962;2023-06-24T08:51:42;6.90;;;3.70;;
73678;SDS011;61978;52.742;16.962;2023-06-24T08:54:09;7.90;;;3.60;;
73678;SDS011;61978;52.742;16.962;2023-06-24T08:56:36;4.30;;;3.70;;
73678;SDS011;61978;52.742;16.962;2023-06-24T08:59:05;2.90;;;2.70;;
73678;SDS011;61978;52.742;16.962;2023-06-24T09:01:31;7.40;;;3.10;;
73678;SDS011;61978;52.742;16.962;2023-06-24T09:03:56;2.90;;;2.60;;
73678;SDS011;61978;52.742;16.962;2023-06-24T09:06:22;6.30;;;3.50;;
73678;SDS011;61978;52.742;16.962;2023-06-24T09:08:54;10.10;;;3.30;;
73678;SDS011;61978;52.742;16.962;2023-06-24T09:11:24;4.40;;;3.60;;
73678;SDS011;61978;52.742;16.962;2023-06-24T09:13:59;6.50;;;3.00;;
73678;SDS011;61978;52.742;16.962;2023-06-24T09:16:25;4.90;;;3.50;;
73678;SDS011;61978;52.742;16.962;2023-06-24T09:18:52;7.40;;;3.70;;
73678;SDS011;61978;52.742;16.962;2023-06-24T09:21:25;8.80;;;3.80;;
73678;SDS011;61978;52.742;16.962;2023-06-24T09:23:51;8.70;;;4.50;;
73678;SDS011;61978;52.742;16.962;2023-06-24T09:26:17;8.10;;;3.50;;
73678;SDS011;61978;52.742;16.962;2023-06-24T09:28:47;8.00;;;3.40;;
73678;SDS011;61978;52.742;16.962;2023-06-24T09:31:13;4.70;;;3.20;;
73678;SDS011;61978;52.742;16.962;2023-06-24T09:33:39;4.50;;;3.10;;
73678;SDS011;61978;52.742;16.962;2023-06-24T09:36:06;6.00;;;4.30;;
73678;SDS011;61978;52.742;16.962;2023-06-24T09:38:35;11.80;;;3.90;;
73678;SDS011;61978;52.742;16.962;2023-06-24T09:41:02;4.30;;;3.40;;
73678;SDS011;61978;52.742;16.962;2023-06-24T09:43:29;7.40;;;3.80;;
73678;SDS011;61978;52.742;16.962;2023-06-24T09:45:55;6.00;;;3.20;;
73678;SDS011;61978;52.742;16.962;2023-06-24T09:48:22;4.20;;;3.10;;
73678;SDS011;61978;52.742;16.962;2023-06-24T09:50:47;6.90;;;3.10;;
73678;SDS011;61978;52.742;16.962;2023-06-24T09:53:14;5.60;;;2.60;;
73678;SDS011;61978;52.742;16.962;2023-06-24T09:55:40;2.80;;;2.60;;
73678;SDS011;61978;52.742;16.962;2023-06-24T09:58:09;5.10;;;3.30;;
73678;SDS011;61978;52.742;16.962;2023-06-24T10:00:36;5.10;;;2.50;;
73678;SDS011;61978;52.742;16.962;2023-06-24T10:03:02;5.60;;;3.00;;
73678;SDS011;61978;52.742;16.962;2023-06-24T10:05:27;5.20;;;2.30;;
73678;SDS011;61978;52.742;16.962;2023-06-24T10:07:53;5.20;;;2.90;;
73678;SDS011;61978;52.742;16.962;2023-06-24T10:10:19;3.30;;;2.50;;
73678;SDS011;61978;52.742;16.962;2023-06-24T10:12:45;5.00;;;2.50;;
73678;SDS011;61978;52.742;16.962;2023-06-24T10:15:11;7.70;;;2.90;;
73678;SDS011;61978;52.742;16.962;2023-06-24T10:17:37;6.60;;;2.50;;
73678;SDS011;61978;52.742;16.962;2023-06-24T10:20:03;4.60;;;2.90;;
73678;SDS011;61978;52.742;16.962;2023-06-24T10:22:29;5.00;;;2.80;;
73678;SDS011;61978;52.742;16.962;2023-06-24T10:24:58;4.40;;;3.20;;
73678;SDS011;61978;52.742;16.962;2023-06-24T10:27:25;5.40;;;3.30;;
73678;SDS011;61978;52.742;16.962;2023-06-24T10:29:53;4.50;;;4.00;;
73678;SDS011;61978;52.742;16.962;2023-06-24T10:32:19;5.30;;;3.30;;
73678;SDS011;61978;52.742;16.962;2023-06-24T10:34:46;4.90;;;3.20;;
73678;SDS011;61978;52.742;16.962;2023-06-24T10:37:22;8.30;;;4.20;;
73678;SDS011;61978;52.742;16.962;2023-06-24T10:42:36;4.80;;;3.40;;
73678;SDS011;61978;52.742;16.962;2023-06-24T10:45:22;6.30;;;3.60;;
73678;SDS011;61978;52.742;16.962;2023-06-24T10:47:48;3.20;;;2.90;;
73678;SDS011;61978;52.742;16.962;2023-06-24T10:50:23;8.70;;;4.60;;
73678;SDS011;61978;52.742;16.962;2023-06-24T10:52:50;3.10;;;2.40;;
73678;SDS011;61978;52.742;16.962;2023-06-24T10:55:21;3.50;;;2.80;;
73678;SDS011;61978;52.742;16.962;2023-06-24T10:57:47;3.70;;;2.90;;
73678;SDS011;61978;52.742;16.962;2023-06-24T11:00:13;6.10;;;3.50;;
73678;SDS011;61978;52.742;16.962;2023-06-24T11:02:39;8.90;;;3.10;;
73678;SDS011;61978;52.742;16.962;2023-06-24T11:05:06;5.60;;;3.30;;
73678;SDS011;61978;52.742;16.962;2023-06-24T11:07:32;4.00;;;3.20;;
73678;SDS011;61978;52.742;16.962;2023-06-24T11:10:04;8.00;;;3.60;;
73678;SDS011;61978;52.742;16.962;2023-06-24T11:12:31;9.80;;;3.30;;
73678;SDS011;61978;52.742;16.962;2023-06-24T11:15:02;7.80;;;2.90;;
73678;SDS011;61978;52.742;16.962;2023-06-24T11:17:28;5.70;;;3.20;;
73678;SDS011;61978;52.742;16.962;2023-06-24T11:19:54;5.20;;;3.30;;
73678;SDS011;61978;52.742;16.962;2023-06-24T11:22:20;6.80;;;3.30;;
73678;SDS011;61978;52.742;16.962;2023-06-24T11:24:46;5.20;;;3.70;;
73678;SDS011;61978;52.742;16.962;2023-06-24T11:27:12;5.40;;;2.50;;
73678;SDS011;61978;52.742;16.962;2023-06-24T11:29:38;5.00;;;3.10;;
73678;SDS011;61978;52.742;16.962;2023-06-24T11:32:06;9.00;;;3.30;;
73678;SDS011;61978;52.742;16.962;2023-06-24T11:34:33;3.60;;;2.80;;
73678;SDS011;61978;52.742;16.962;2023-06-24T11:37:08;9.30;;;3.30;;
73678;SDS011;61978;52.742;16.962;2023-06-24T11:39:35;5.80;;;3.40;;
73678;SDS011;61978;52.742;16.962;2023-06-24T11:42:00;6.10;;;3.70;;
73678;SDS011;61978;52.742;16.962;2023-06-24T11:44:26;7.00;;;3.30;;
73678;SDS011;61978;52.742;16.962;2023-06-24T11:46:52;6.60;;;3.10;;
73678;SDS011;61978;52.742;16.962;2023-06-24T11:49:18;6.30;;;3.30;;
73678;SDS011;61978;52.742;16.962;2023-06-24T11:51:45;4.40;;;3.30;;
73678;SDS011;61978;52.742;16.962;2023-06-24T11:54:13;6.30;;;3.30;;
73678;SDS011;61978;52.742;16.962;2023-06-24T11:56:40;5.20;;;3.80;;
73678;SDS011;61978;52.742;16.962;2023-06-24T11:59:15;3.60;;;3.10;;
73678;SDS011;61978;52.742;16.962;2023-06-24T12:01:45;7.10;;;3.60;;
73678;SDS011;61978;52.742;16.962;2023-06-24T12:06:37;4.10;;;2.80;;
73678;SDS011;61978;52.742;16.962;2023-06-24T12:09:03;6.20;;;3.10;;
73678;SDS011;61978;52.742;16.962;2023-06-24T12:11:28;11.40;;;3.80;;
73678;SDS011;61978;52.742;16.962;2023-06-24T12:13:54;3.10;;;2.70;;
73678;SDS011;61978;52.742;16.962;2023-06-24T12:16:20;7.70;;;3.50;;
73678;SDS011;61978;52.742;16.962;2023-06-24T12:18:46;5.70;;;2.80;;
73678;SDS011;61978;52.742;16.962;2023-06-24T12:21:11;5.30;;;3.30;;
73678;SDS011;61978;52.742;16.962;2023-06-24T12:23:37;5.90;;;2.90;;
73678;SDS011;61978;52.742;16.962;2023-06-24T12:26:02;5.30;;;3.60;;
73678;SDS011;61978;52.742;16.962;2023-06-24T12:28:28;7.00;;;3.50;;
73678;SDS011;61978;52.742;16.962;2023-06-24T12:30:54;6.90;;;3.10;;
73678;SDS011;61978;52.742;16.962;2023-06-24T12:33:20;6.00;;;3.90;;
73678;SDS011;61978;52.742;16.962;2023-06-24T12:35:51;5.30;;;3.50;;
73678;SDS011;61978;52.742;16.962;2023-06-24T12:38:17;6.10;;;3.50;;
73678;SDS011;61978;52.742;16.962;2023-06-24T12:40:43;5.00;;;3.30;;
73678;SDS011;61978;52.742;16.962;2023-06-24T12:43:10;5.80;;;2.90;;
73678;SDS011;61978;52.742;16.962;2023-06-24T12:45:37;5.00;;;3.30;;
73678;SDS011;61978;52.742;16.962;2023-06-24T12:48:03;4.10;;;3.50;;
73678;SDS011;61978;52.742;16.962;2023-06-24T12:50:30;3.90;;;3.00;;
73678;SDS011;61978;52.742;16.962;2023-06-24T12:52:57;4.50;;;3.40;;
73678;SDS011;61978;52.742;16.962;2023-06-24T12:55:23;4.60;;;3.20;;
73678;SDS011;61978;52.742;16.962;2023-06-24T12:57:49;10.70;;;3.20;;
73678;SDS011;61978;52.742;16.962;2023-06-24T13:00:15;5.20;;;3.30;;
73678;SDS011;61978;52.742;16.962;2023-06-24T13:02:42;6.30;;;2.80;;
73678;SDS011;61978;52.742;16.962;2023-06-24T13:05:08;4.00;;;2.60;;
73678;SDS011;61978;52.742;16.962;2023-06-24T13:07:34;5.50;;;4.40;;
73678;SDS011;61978;52.742;16.962;2023-06-24T13:10:00;5.30;;;3.50;;
73678;SDS011;61978;52.742;16.962;2023-06-24T13:12:26;4.30;;;3.60;;
73678;SDS011;61978;52.742;16.962;2023-06-24T13:14:52;4.30;;;3.00;;
73678;SDS011;61978;52.742;16.962;2023-06-24T13:17:18;5.50;;;3.70;;
73678;SDS011;61978;52.742;16.962;2023-06-24T13:19:44;6.70;;;3.90;;
73678;SDS011;61978;52.742;16.962;2023-06-24T13:22:10;5.60;;;3.20;;
73678;SDS011;61978;52.742;16.962;2023-06-24T13:24:36;4.20;;;3.30;;
73678;SDS011;61978;52.742;16.962;2023-06-24T13:27:01;6.80;;;3.70;;
73678;SDS011;61978;52.742;16.962;2023-06-24T13:29:27;3.50;;;3.20;;
73678;SDS011;61978;52.742;16.962;2023-06-24T13:31:53;5.00;;;4.00;;
73678;SDS011;61978;52.742;16.962;2023-06-24T13:34:19;5.90;;;3.80;;
73678;SDS011;61978;52.742;16.962;2023-06-24T13:36:45;7.00;;;4.30;;
73678;SDS011;61978;52.742;16.962;2023-06-24T13:39:10;7.80;;;3.90;;
73678;SDS011;61978;52.742;16.962;2023-06-24T13:41:42;4.90;;;3.80;;
73678;SDS011;61978;52.742;16.962;2023-06-24T13:44:08;5.70;;;4.30;;
73678;SDS011;61978;52.742;16.962;2023-06-24T13:46:33;3.50;;;2.90;;
73678;SDS011;61978;52.742;16.962;2023-06-24T13:48:59;5.40;;;4.00;;
73678;SDS011;61978;52.742;16.962;2023-06-24T13:51:25;4.80;;;3.70;;
73678;SDS011;61978;52.742;16.962;2023-06-24T13:53:51;5.50;;;3.70;;
73678;SDS011;61978;52.742;16.962;2023-06-24T13:56:18;5.50;;;3.90;;
73678;SDS011;61978;52.742;16.962;2023-06-24T13:58:45;10.10;;;4.40;;
73678;SDS011;61978;52.742;16.962;2023-06-24T14:01:10;5.80;;;4.00;;
73678;SDS011;61978;52.742;16.962;2023-06-24T14:03:37;4.80;;;3.20;;
73678;SDS011;61978;52.742;16.962;2023-06-24T14:06:03;10.90;;;4.10;;
73678;SDS011;61978;52.742;16.962;2023-06-24T14:08:29;6.80;;;3.30;;
73678;SDS011;61978;52.742;16.962;2023-06-24T14:10:55;6.40;;;3.40;;
73678;SDS011;61978;52.742;16.962;2023-06-24T14:13:22;7.20;;;3.60;;
73678;SDS011;61978;52.742;16.962;2023-06-24T14:15:48;6.50;;;3.30;;
73678;SDS011;61978;52.742;16.962;2023-06-24T14:18:14;4.20;;;3.80;;
73678;SDS011;61978;52.742;16.962;2023-06-24T14:20:39;4.30;;;3.90;;
73678;SDS011;61978;52.742;16.962;2023-06-24T14:23:05;6.70;;;3.80;;
73678;SDS011;61978;52.742;16.962;2023-06-24T14:25:31;5.00;;;2.90;;
73678;SDS011;61978;52.742;16.962;2023-06-24T14:27:58;3.50;;;3.20;;
73678;SDS011;61978;52.742;16.962;2023-06-24T14:30:24;5.90;;;3.80;;
73678;SDS011;61978;52.742;16.962;2023-06-24T14:32:50;27.10;;;4.60;;
73678;SDS011;61978;52.742;16.962;2023-06-24T14:35:16;4.10;;;3.60;;
73678;SDS011;61978;52.742;16.962;2023-06-24T14:37:42;4.50;;;3.90;;
73678;SDS011;61978;52.742;16.962;2023-06-24T14:40:08;4.80;;;3.70;;
73678;SDS011;61978;52.742;16.962;2023-06-24T14:42:35;7.50;;;3.40;;
73678;SDS011;61978;52.742;16.962;2023-06-24T14:45:01;4.90;;;3.00;;